createdAt,value
2022-10-09T00:01:29.621Z,4.70
2022-10-09T00:03:58.513Z,4.32
2022-10-09T00:06:33.102Z,4.55
2022-10-09T00:09:04.822Z,3.67
2022-10-09T00:11:33.746Z,3.50
2022-10-09T00:14:02.178Z,3.90
2022-10-09T00:16:29.344Z,4.00
2022-10-09T00:18:57.053Z,3.53
2022-10-09T00:21:32.995Z,3.88
2022-10-09T00:24:02.632Z,3.53
2022-10-09T00:26:29.964Z,3.03
2022-10-09T00:28:57.589Z,2.45
2022-10-09T00:31:24.838Z,3.60
2022-10-09T00:33:51.747Z,2.53
2022-10-09T00:36:23.532Z,2.28
2022-10-09T00:38:50.969Z,2.53
2022-10-09T00:41:22.362Z,2.47
2022-10-09T00:43:55.842Z,2.15
2022-10-09T00:46:48.927Z,2.72
2022-10-09T00:49:30.287Z,2.90
2022-10-09T00:52:02.586Z,2.88
2022-10-09T00:54:36.324Z,2.72
2022-10-09T00:57:03.464Z,2.20
2022-10-09T00:59:31.500Z,2.70
2022-10-09T01:01:58.600Z,2.63
2022-10-09T01:04:25.890Z,2.40
2022-10-09T01:07:14.489Z,2.80
2022-10-09T01:09:57.924Z,2.00
2022-10-09T01:15:28.508Z,1.98
2022-10-09T01:18:24.404Z,2.35
2022-10-09T01:21:22.589Z,2.58
2022-10-09T01:24:13.991Z,2.75
2022-10-09T01:26:56.881Z,2.50
2022-10-09T01:29:28.829Z,2.08
2022-10-09T01:31:57.351Z,2.75
2022-10-09T01:34:25.073Z,2.83
2022-10-09T01:36:53.395Z,2.70
2022-10-09T01:39:22.821Z,2.25
2022-10-09T01:41:52.274Z,2.85
2022-10-09T01:44:33.477Z,2.60
2022-10-09T01:47:01.219Z,2.70
2022-10-09T01:49:40.908Z,2.40
2022-10-09T01:52:28.721Z,2.50
2022-10-09T01:55:09.485Z,2.72
2022-10-09T01:58:04.468Z,2.85
2022-10-09T02:00:37.762Z,3.42
2022-10-09T02:03:09.995Z,2.72
2022-10-09T02:05:39.151Z,2.37
2022-10-09T02:08:06.071Z,2.78
2022-10-09T02:10:35.375Z,2.53
2022-10-09T02:13:02.764Z,2.78
2022-10-09T02:15:51.926Z,2.95
2022-10-09T02:18:45.583Z,2.55
2022-10-09T02:23:50.106Z,2.17
2022-10-09T02:26:18.442Z,2.83
2022-10-09T02:28:46.193Z,2.95
2022-10-09T02:31:26.370Z,2.30
2022-10-09T02:34:03.665Z,2.10
2022-10-09T02:36:31.446Z,2.80
2022-10-09T02:38:58.836Z,2.33
2022-10-09T02:41:26.662Z,3.00
2022-10-09T02:43:53.880Z,2.42
2022-10-09T02:46:21.477Z,2.22
2022-10-09T02:48:48.503Z,2.50
2022-10-09T02:51:15.591Z,2.80
2022-10-09T02:53:42.727Z,2.80
2022-10-09T02:56:09.989Z,2.30
2022-10-09T02:58:37.617Z,2.80
2022-10-09T03:01:05.058Z,2.92
2022-10-09T03:03:32.246Z,2.38
2022-10-09T03:06:26.863Z,2.85
2022-10-09T03:08:55.340Z,2.42
2022-10-09T03:11:25.129Z,2.30
2022-10-09T03:13:52.470Z,2.72
2022-10-09T03:16:25.235Z,2.30
2022-10-09T03:18:53.551Z,2.95
2022-10-09T03:21:27.059Z,2.63
2022-10-09T03:23:55.015Z,2.65
2022-10-09T03:26:26.851Z,3.13
2022-10-09T03:28:55.407Z,2.55
2022-10-09T03:34:13.129Z,2.55
2022-10-09T03:36:40.222Z,2.90
2022-10-09T03:39:07.143Z,2.45
2022-10-09T03:41:34.059Z,2.45
2022-10-09T03:44:02.013Z,2.42
2022-10-09T03:46:28.890Z,1.80
2022-10-09T03:48:55.921Z,2.33
2022-10-09T03:51:22.830Z,2.05
2022-10-09T03:53:49.722Z,1.90
2022-10-09T03:56:16.626Z,1.88
2022-10-09T03:58:43.616Z,2.08
2022-10-09T04:01:10.543Z,2.13
2022-10-09T04:03:37.681Z,1.95
2022-10-09T04:06:04.872Z,2.08
2022-10-09T04:08:31.782Z,2.20
2022-10-09T04:11:02.551Z,1.70
2022-10-09T04:13:29.756Z,1.85
2022-10-09T04:15:57.487Z,1.73
2022-10-09T04:18:25.144Z,2.08
2022-10-09T04:20:54.341Z,1.67
2022-10-09T04:23:27.068Z,1.75
2022-10-09T04:25:55.363Z,1.85
2022-10-09T04:28:23.751Z,1.50
2022-10-09T04:30:50.892Z,1.73
2022-10-09T04:33:18.301Z,1.63
2022-10-09T04:35:46.668Z,1.33
2022-10-09T04:38:13.638Z,1.60
2022-10-09T04:40:41.269Z,1.52
2022-10-09T04:43:08.260Z,2.00
2022-10-09T04:45:40.595Z,1.70
2022-10-09T04:48:07.513Z,2.08
2022-10-09T04:50:34.291Z,1.48
2022-10-09T04:53:01.223Z,1.55
2022-10-09T04:55:28.156Z,1.70
2022-10-09T04:57:55.130Z,1.73
2022-10-09T05:00:22.376Z,1.30
2022-10-09T05:02:49.506Z,1.80
2022-10-09T05:05:16.561Z,1.52
2022-10-09T05:07:43.447Z,1.20
2022-10-09T05:10:10.329Z,1.70
2022-10-09T05:12:37.190Z,1.52
2022-10-09T05:15:04.828Z,1.50
2022-10-09T05:17:31.781Z,1.40
2022-10-09T05:19:58.825Z,1.75
2022-10-09T05:22:25.772Z,2.40
2022-10-09T05:24:52.582Z,1.45
2022-10-09T05:27:19.487Z,1.48
2022-10-09T05:29:46.337Z,1.65
2022-10-09T05:32:14.738Z,1.58
2022-10-09T05:34:41.550Z,1.30
2022-10-09T05:37:08.501Z,1.48
2022-10-09T05:39:39.367Z,1.80
2022-10-09T05:42:06.324Z,4.80
2022-10-09T05:44:33.268Z,6.15
2022-10-09T05:47:00.370Z,8.35
2022-10-09T05:49:27.183Z,8.30
2022-10-09T05:51:55.957Z,6.00
2022-10-09T05:54:23.022Z,4.53
2022-10-09T05:56:50.156Z,5.28
2022-10-09T05:59:22.072Z,7.97
2022-10-09T06:01:51.614Z,12.88
2022-10-09T06:04:23.090Z,11.60
2022-10-09T06:06:50.948Z,9.35
2022-10-09T06:09:22.878Z,14.93
2022-10-09T06:11:53.517Z,10.88
2022-10-09T06:14:22.213Z,18.27
2022-10-09T06:16:49.746Z,16.48
2022-10-09T06:19:19.414Z,21.73
2022-10-09T06:21:47.152Z,13.45
2022-10-09T06:24:27.295Z,10.65
2022-10-09T06:26:55.568Z,15.10
2022-10-09T06:29:22.496Z,18.55
2022-10-09T06:31:49.579Z,18.35
2022-10-09T06:34:16.539Z,31.30
2022-10-09T06:36:43.402Z,31.85
2022-10-09T06:39:10.756Z,18.08
2022-10-09T06:41:37.688Z,15.52
2022-10-09T06:44:07.774Z,13.18
2022-10-09T06:46:38.356Z,11.95
2022-10-09T06:49:07.134Z,15.10
2022-10-09T06:51:35.090Z,14.80
2022-10-09T06:54:07.263Z,8.65
2022-10-09T06:56:34.131Z,8.65
2022-10-09T06:59:06.621Z,7.25
2022-10-09T07:01:34.663Z,6.07
2022-10-09T07:04:06.941Z,4.30
2022-10-09T07:06:38.462Z,3.20
2022-10-09T07:09:09.731Z,2.90
2022-10-09T07:11:40.159Z,3.10
2022-10-09T07:14:09.379Z,2.65
2022-10-09T07:16:40.978Z,2.85
2022-10-09T07:19:12.983Z,2.00
2022-10-09T07:21:43.705Z,2.38
2022-10-09T07:24:12.105Z,2.65
2022-10-09T07:26:42.909Z,2.30
2022-10-09T07:29:13.008Z,2.10
2022-10-09T07:31:39.905Z,2.03
2022-10-09T07:34:06.964Z,2.10
2022-10-09T07:36:34.544Z,2.47
2022-10-09T07:39:02.159Z,3.90
2022-10-09T07:41:30.071Z,6.20
2022-10-09T07:43:58.053Z,17.45
2022-10-09T07:46:32.219Z,50.50
2022-10-09T07:49:00.119Z,25.50
2022-10-09T07:51:29.476Z,62.53
2022-10-09T07:53:57.360Z,21.92
2022-10-09T07:56:31.456Z,15.95
2022-10-09T07:59:12.565Z,15.55
2022-10-09T08:01:40.048Z,3.55
2022-10-09T08:04:07.076Z,6.13
2022-10-09T08:06:34.485Z,7.45
2022-10-09T08:09:03.317Z,4.93
2022-10-09T08:11:30.612Z,4.40
2022-10-09T08:13:58.075Z,3.00
2022-10-09T08:16:27.256Z,5.00
2022-10-09T08:18:59.529Z,2.00
2022-10-09T08:21:28.502Z,1.50
2022-10-09T08:23:57.823Z,1.83
2022-10-09T08:26:30.061Z,1.40
2022-10-09T08:31:27.932Z,1.77
2022-10-09T08:33:57.123Z,2.22
2022-10-09T08:36:24.799Z,1.77
2022-10-09T08:38:52.289Z,1.63
2022-10-09T08:41:43.101Z,1.58
2022-10-09T08:44:25.798Z,1.40
2022-10-09T08:47:16.855Z,1.27
2022-10-09T08:49:50.872Z,1.33
2022-10-09T08:53:06.783Z,1.30
2022-10-09T08:55:45.695Z,1.33
2022-10-09T08:58:19.312Z,1.63
2022-10-09T09:00:54.596Z,1.00
2022-10-09T09:03:39.555Z,1.52
2022-10-09T09:06:13.265Z,1.20
2022-10-09T09:08:46.087Z,1.45
2022-10-09T09:12:01.123Z,1.30
2022-10-09T09:14:59.851Z,1.70
2022-10-09T09:18:01.941Z,1.52
2022-10-09T09:20:55.595Z,1.20
2022-10-09T09:23:36.249Z,1.45
2022-10-09T09:26:16.690Z,1.20
2022-10-09T09:28:44.637Z,2.03
2022-10-09T09:31:22.570Z,1.50
2022-10-09T09:33:49.384Z,1.05
2022-10-09T09:36:40.656Z,1.58
2022-10-09T09:42:09.975Z,1.35
2022-10-09T09:44:42.165Z,1.48
2022-10-09T09:47:35.064Z,1.60
2022-10-09T09:50:04.930Z,1.48
2022-10-09T09:52:39.443Z,1.30
2022-10-09T09:55:07.131Z,1.55
2022-10-09T09:57:39.535Z,1.25
2022-10-09T10:00:21.961Z,1.30
2022-10-09T10:02:50.510Z,1.45
2022-10-09T10:05:24.360Z,1.30
2022-10-09T10:07:52.126Z,1.50
2022-10-09T10:10:27.396Z,1.50
2022-10-09T10:12:58.204Z,1.45
2022-10-09T10:15:31.987Z,1.10
2022-10-09T10:18:06.399Z,1.33
2022-10-09T10:21:03.018Z,1.23
2022-10-09T10:23:43.382Z,1.25
2022-10-09T10:26:30.102Z,1.00
2022-10-09T10:29:02.227Z,1.17
2022-10-09T10:31:45.115Z,1.30
2022-10-09T10:37:14.697Z,1.02
2022-10-09T10:39:52.800Z,1.10
2022-10-09T10:42:26.299Z,0.95
2022-10-09T10:45:04.238Z,1.63
2022-10-09T10:47:37.412Z,1.13
2022-10-09T10:50:04.639Z,1.00
2022-10-09T10:53:04.165Z,1.23
2022-10-09T10:55:55.700Z,1.15
2022-10-09T10:59:18.161Z,1.77
2022-10-09T11:02:10.348Z,1.10
2022-10-09T11:05:06.970Z,1.20
2022-10-09T11:08:07.100Z,0.85
2022-10-09T11:10:55.718Z,0.80
2022-10-09T11:13:36.278Z,1.15
2022-10-09T11:16:33.832Z,2.20
2022-10-09T11:19:24.060Z,3.20
2022-10-09T11:22:10.430Z,6.50
2022-10-09T11:25:30.367Z,7.82
2022-10-09T11:28:22.258Z,6.32
2022-10-09T11:31:06.530Z,4.18
2022-10-09T11:33:40.171Z,3.35
2022-10-09T11:36:47.241Z,2.03
2022-10-09T11:39:23.635Z,1.60
2022-10-09T11:41:53.502Z,1.15
2022-10-09T11:44:44.722Z,1.35
2022-10-09T11:47:42.030Z,1.00
2022-10-09T11:50:19.174Z,1.58
2022-10-09T11:52:55.509Z,0.90
2022-10-09T11:55:30.139Z,1.02
2022-10-09T11:58:27.969Z,1.10
2022-10-09T12:01:24.534Z,0.80
2022-10-09T12:04:13.326Z,1.00
2022-10-09T12:06:52.151Z,0.90
2022-10-09T12:09:48.521Z,0.90
2022-10-09T12:12:18.635Z,1.00
2022-10-09T12:14:48.556Z,1.00
2022-10-09T12:17:34.521Z,0.80
2022-10-09T12:20:06.542Z,0.80
2022-10-09T12:22:42.926Z,1.10
2022-10-09T12:25:40.607Z,0.90
2022-10-09T12:28:21.081Z,0.85
2022-10-09T12:30:49.198Z,0.80
2022-10-09T12:33:36.890Z,0.90
2022-10-09T12:36:15.400Z,1.52
2022-10-09T12:38:43.352Z,0.90
2022-10-09T12:41:30.448Z,1.35
2022-10-09T12:43:58.393Z,0.82
2022-10-09T12:46:33.800Z,1.10
2022-10-09T12:49:05.119Z,0.75
2022-10-09T12:51:34.104Z,1.00
2022-10-09T12:54:09.677Z,0.70
2022-10-09T12:56:38.826Z,0.90
2022-10-09T12:59:08.559Z,0.90
2022-10-09T13:01:35.972Z,0.73
2022-10-09T13:04:05.550Z,0.80
2022-10-09T13:06:50.291Z,0.73
2022-10-09T13:09:37.022Z,0.60
2022-10-09T13:12:14.269Z,0.80
2022-10-09T13:15:04.521Z,0.65
2022-10-09T13:17:38.655Z,0.95
2022-10-09T13:20:31.229Z,0.63
2022-10-09T13:23:05.226Z,0.80
2022-10-09T13:25:42.513Z,0.98
2022-10-09T13:28:19.353Z,0.75
2022-10-09T13:30:46.525Z,0.80
2022-10-09T13:33:16.054Z,0.70
2022-10-09T13:35:43.534Z,0.75
2022-10-09T13:38:17.915Z,0.70
2022-10-09T13:40:45.021Z,0.65
2022-10-09T13:43:37.862Z,0.70
2022-10-09T13:46:04.952Z,0.50
2022-10-09T13:48:31.848Z,0.60
2022-10-09T13:50:59.835Z,0.70
2022-10-09T13:53:28.161Z,0.50
2022-10-09T13:56:00.035Z,0.80
2022-10-09T13:58:28.530Z,0.63
2022-10-09T14:00:55.775Z,0.80
2022-10-09T14:03:22.529Z,1.05
2022-10-09T14:05:49.476Z,1.08
2022-10-09T14:08:16.281Z,0.60
2022-10-09T14:10:43.910Z,0.70
2022-10-09T14:13:11.042Z,0.63
2022-10-09T14:15:41.686Z,0.77
2022-10-09T14:18:09.256Z,0.60
2022-10-09T14:20:36.036Z,0.88
2022-10-09T14:23:03.031Z,0.88
2022-10-09T14:25:30.323Z,0.70
2022-10-09T14:27:57.161Z,1.00
2022-10-09T14:30:23.992Z,0.88
2022-10-09T14:32:51.250Z,0.85
2022-10-09T14:35:21.524Z,0.90
2022-10-09T14:37:48.900Z,0.80
2022-10-09T14:40:15.966Z,0.77
2022-10-09T14:42:42.958Z,0.80
2022-10-09T14:45:10.885Z,0.65
2022-10-09T14:47:37.751Z,0.80
2022-10-09T14:50:05.265Z,0.80
2022-10-09T14:52:32.247Z,0.65
2022-10-09T14:54:59.217Z,0.80
2022-10-09T14:57:26.161Z,0.90
2022-10-09T14:59:53.069Z,0.90
2022-10-09T15:02:20.644Z,1.25
2022-10-09T15:04:47.592Z,0.90
2022-10-09T15:07:14.449Z,0.80
2022-10-09T15:09:41.258Z,0.85
2022-10-09T15:12:08.162Z,0.55
2022-10-09T15:14:34.990Z,0.63
2022-10-09T15:17:01.965Z,0.60
2022-10-09T15:19:28.728Z,0.80
2022-10-09T15:21:55.563Z,0.70
2022-10-09T15:24:22.361Z,1.02
2022-10-09T15:26:49.195Z,0.70
2022-10-09T15:29:16.100Z,0.80
2022-10-09T15:31:42.881Z,0.80
2022-10-09T15:34:16.198Z,0.57
2022-10-09T15:36:45.716Z,0.70
2022-10-09T15:39:14.122Z,0.70
2022-10-09T15:41:43.222Z,0.70
2022-10-09T15:44:21.187Z,0.70
2022-10-09T15:46:49.386Z,0.65
2022-10-09T15:49:16.318Z,0.80
2022-10-09T15:51:43.228Z,0.70
2022-10-09T15:54:11.792Z,0.88
2022-10-09T15:56:40.243Z,0.63
2022-10-09T15:59:09.743Z,0.70
2022-10-09T16:01:36.634Z,0.50
2022-10-09T16:04:03.699Z,0.60
2022-10-09T16:06:30.566Z,0.70
2022-10-09T16:08:58.510Z,1.08
2022-10-09T16:11:26.795Z,0.70
2022-10-09T16:13:55.142Z,0.60
2022-10-09T16:16:26.042Z,0.68
2022-10-09T16:18:54.023Z,0.70
2022-10-09T16:21:28.034Z,0.90
2022-10-09T16:23:58.871Z,0.60
2022-10-09T16:26:28.534Z,0.73
2022-10-09T16:28:55.722Z,0.88
2022-10-09T16:31:28.062Z,1.00
2022-10-09T16:36:22.222Z,0.90
2022-10-09T16:38:49.122Z,1.42
2022-10-09T16:41:18.625Z,0.80
2022-10-09T16:43:48.238Z,1.10
2022-10-09T16:46:21.501Z,2.33
2022-10-09T16:48:50.263Z,7.50
2022-10-09T16:51:21.456Z,17.25
2022-10-09T16:53:53.194Z,30.17
2022-10-09T16:56:24.321Z,41.63
2022-10-09T16:58:56.063Z,32.05
2022-10-09T17:01:24.474Z,18.42
2022-10-09T17:03:55.022Z,7.63
2022-10-09T17:06:25.575Z,5.43
2022-10-09T17:08:58.262Z,5.55
2022-10-09T17:11:29.609Z,4.75
2022-10-09T17:13:57.838Z,3.00
2022-10-09T17:16:30.104Z,3.30
2022-10-09T17:18:57.081Z,2.25
2022-10-09T17:21:26.720Z,1.60
2022-10-09T17:23:59.360Z,1.40
2022-10-09T17:26:28.708Z,1.80
2022-10-09T17:29:01.277Z,1.40
2022-10-09T17:31:29.371Z,1.92
2022-10-09T17:34:00.673Z,1.60
2022-10-09T17:36:31.579Z,3.05
2022-10-09T17:38:58.686Z,3.80
2022-10-09T17:41:26.816Z,8.60
2022-10-09T17:43:55.428Z,13.60
2022-10-09T17:46:25.004Z,7.30
2022-10-09T17:48:56.664Z,6.13
2022-10-09T17:51:30.948Z,9.90
2022-10-09T17:54:02.758Z,8.27
2022-10-09T17:56:32.518Z,4.63
2022-10-09T17:59:00.722Z,6.88
2022-10-09T18:01:28.181Z,9.25
2022-10-09T18:03:55.260Z,12.15
2022-10-09T18:06:24.223Z,7.82
2022-10-09T18:08:54.086Z,9.38
2022-10-09T18:11:22.763Z,5.07
2022-10-09T18:13:49.730Z,8.88
2022-10-09T18:16:22.501Z,15.27
2022-10-09T18:18:49.548Z,9.23
2022-10-09T18:21:20.114Z,7.18
2022-10-09T18:23:48.358Z,5.25
2022-10-09T18:26:19.366Z,2.80
2022-10-09T18:28:48.597Z,2.70
2022-10-09T18:31:20.275Z,2.45
2022-10-09T18:33:48.024Z,5.18
2022-10-09T18:36:19.851Z,5.32
2022-10-09T18:38:49.616Z,5.05
2022-10-09T18:41:18.385Z,2.78
2022-10-09T18:43:45.854Z,2.17
2022-10-09T18:46:14.741Z,2.03
2022-10-09T18:48:42.274Z,2.35
2022-10-09T18:51:15.995Z,6.13
2022-10-09T18:53:48.604Z,3.58
2022-10-09T18:56:18.192Z,4.38
2022-10-09T18:58:45.659Z,4.68
2022-10-09T19:01:12.495Z,4.65
2022-10-09T19:03:44.695Z,4.20
2022-10-09T19:06:14.458Z,3.47
2022-10-09T19:08:41.267Z,3.65
2022-10-09T19:11:09.125Z,4.25
2022-10-09T19:13:36.361Z,4.25
2022-10-09T19:16:06.360Z,4.53
2022-10-09T19:18:35.225Z,8.95
2022-10-09T19:21:02.901Z,7.60
2022-10-09T19:23:30.162Z,9.55
2022-10-09T19:25:59.128Z,8.52
2022-10-09T19:28:31.132Z,8.23
2022-10-09T19:30:59.275Z,4.43
2022-10-09T19:33:26.191Z,5.32
2022-10-09T19:35:55.765Z,6.90
2022-10-09T19:38:23.565Z,5.70
2022-10-09T19:40:50.985Z,9.30
2022-10-09T19:43:19.608Z,9.45
2022-10-09T19:45:49.124Z,18.13
2022-10-09T19:48:17.382Z,22.98
2022-10-09T19:50:45.909Z,15.73
2022-10-09T19:53:13.598Z,19.08
2022-10-09T19:55:40.405Z,19.13
2022-10-09T19:58:07.399Z,13.02
2022-10-09T20:00:34.277Z,13.90
2022-10-09T20:03:01.038Z,11.32
2022-10-09T20:05:28.064Z,9.35
2022-10-09T20:07:54.878Z,9.05
2022-10-09T20:10:21.717Z,8.35
2022-10-09T20:12:48.925Z,7.82
2022-10-09T20:15:16.091Z,9.40
2022-10-09T20:17:43.021Z,8.60
2022-10-09T20:20:10.452Z,6.40
2022-10-09T20:22:37.370Z,5.05
2022-10-09T20:25:05.189Z,5.85
2022-10-09T20:27:32.045Z,6.40
2022-10-09T20:29:58.977Z,6.63
2022-10-09T20:32:26.008Z,6.28
2022-10-09T20:34:53.718Z,7.10
2022-10-09T20:37:20.572Z,7.38
2022-10-09T20:39:47.764Z,7.32
2022-10-09T20:42:14.659Z,6.40
2022-10-09T20:44:42.517Z,10.13
2022-10-09T20:47:09.592Z,14.00
2022-10-09T20:49:36.687Z,17.10
2022-10-09T20:52:03.665Z,9.27
2022-10-09T20:54:30.762Z,10.57
2022-10-09T20:56:57.589Z,10.75
2022-10-09T20:59:24.521Z,10.43
2022-10-09T21:01:51.330Z,10.13
2022-10-09T21:04:18.213Z,13.18
2022-10-09T21:06:45.063Z,12.73
2022-10-09T21:09:11.957Z,15.70
2022-10-09T21:11:40.443Z,10.57
2022-10-09T21:14:07.791Z,11.73
2022-10-09T21:16:35.081Z,18.10
2022-10-09T21:19:04.797Z,16.85
2022-10-09T21:21:32.539Z,14.35
2022-10-09T21:24:00.420Z,11.45
2022-10-09T21:26:29.743Z,19.02
2022-10-09T21:28:59.575Z,22.02
2022-10-09T21:31:30.127Z,17.42
2022-10-09T21:33:58.260Z,17.20
2022-10-09T21:37:19.409Z,19.85
2022-10-09T21:39:36.194Z,21.08
2022-10-09T21:42:03.044Z,20.13
2022-10-09T21:44:30.208Z,17.48
2022-10-09T21:46:56.973Z,14.18
2022-10-09T21:49:27.361Z,14.68
2022-10-09T21:51:54.780Z,13.73
2022-10-09T21:54:22.242Z,13.65
2022-10-09T21:56:49.109Z,12.80
2022-10-09T21:59:16.073Z,16.67
2022-10-09T22:01:42.978Z,15.30
2022-10-09T22:04:10.042Z,18.13
2022-10-09T22:06:36.901Z,18.63
2022-10-09T22:09:04.132Z,16.35
2022-10-09T22:11:31.189Z,16.95
2022-10-09T22:13:58.055Z,16.48
2022-10-09T22:16:24.890Z,13.57
2022-10-09T22:18:51.730Z,16.73
2022-10-09T22:21:19.576Z,15.07
2022-10-09T22:23:46.438Z,15.25
2022-10-09T22:26:18.348Z,15.77
2022-10-09T22:28:46.635Z,14.65
2022-10-09T22:31:23.975Z,14.68
2022-10-09T22:33:58.922Z,15.00
2022-10-09T22:36:29.570Z,13.45
2022-10-09T22:38:58.993Z,14.85
2022-10-09T22:41:28.565Z,15.68
2022-10-09T22:43:58.622Z,17.75
2022-10-09T22:46:29.937Z,14.85
2022-10-09T22:48:57.182Z,16.77
2022-10-09T22:51:27.198Z,17.67
2022-10-09T22:53:56.156Z,16.48
2022-10-09T22:56:30.377Z,14.13
2022-10-09T22:58:57.269Z,14.82
2022-10-09T23:01:31.752Z,14.73
2022-10-09T23:04:08.312Z,13.60
2022-10-09T23:06:35.446Z,15.27
2022-10-09T23:09:05.952Z,13.77
2022-10-09T23:11:33.156Z,14.05
2022-10-09T23:14:01.266Z,15.43
2022-10-09T23:16:30.220Z,12.75
2022-10-09T23:18:58.326Z,14.25
2022-10-09T23:21:25.552Z,12.60
2022-10-09T23:23:53.208Z,13.18
2022-10-09T23:26:25.917Z,12.75
2022-10-09T23:28:59.452Z,13.07
2022-10-09T23:31:27.559Z,12.52
2022-10-09T23:33:55.468Z,10.45
2022-10-09T23:36:26.560Z,12.65
2022-10-09T23:38:54.060Z,11.85
2022-10-09T23:41:25.148Z,11.45
2022-10-09T23:43:52.508Z,12.55
2022-10-09T23:46:29.307Z,11.30
2022-10-09T23:48:56.393Z,11.00
2022-10-09T23:51:25.342Z,9.95
2022-10-09T23:53:52.714Z,9.63
2022-10-09T23:56:23.849Z,9.57
2022-10-09T23:58:52.729Z,10.27
